createdAt,value
2019-05-29T00:00:16.323Z,152823.16
2019-05-29T00:02:44.906Z,152850.78
2019-05-29T00:05:14.543Z,152844.19
2019-05-29T00:07:43.197Z,152799.50
2019-05-29T00:10:12.367Z,152810.02
2019-05-29T00:12:40.880Z,152817.88
2019-05-29T00:15:10.371Z,152825.77
2019-05-29T00:17:39.043Z,152782.39
2019-05-29T00:20:08.308Z,152761.36
2019-05-29T00:22:36.952Z,152773.19
2019-05-29T00:25:29.194Z,152766.59
2019-05-29T00:27:57.817Z,152725.84
2019-05-29T00:30:26.434Z,152749.53
2019-05-29T00:32:55.004Z,152744.25
2019-05-29T00:35:23.470Z,152753.45
2019-05-29T00:37:52.071Z,152723.22
2019-05-29T00:40:20.653Z,152702.19
2019-05-29T00:42:49.233Z,152714.02
2019-05-29T00:45:18.293Z,152719.30
2019-05-29T00:47:49.752Z,152712.70
2019-05-29T00:50:18.471Z,152686.44
2019-05-29T00:52:47.056Z,152652.25
2019-05-29T00:55:16.884Z,152654.91
2019-05-29T00:57:45.643Z,152639.11
2019-05-29T01:00:15.862Z,152675.94
2019-05-29T01:02:47.652Z,152636.50
2019-05-29T01:05:16.309Z,152652.25
2019-05-29T01:07:44.902Z,152647.02
2019-05-29T01:10:14.666Z,152648.31
2019-05-29T01:12:43.204Z,152631.22
2019-05-29T01:15:13.236Z,152603.66
2019-05-29T01:17:41.900Z,152623.37
2019-05-29T01:20:11.846Z,152627.30
2019-05-29T01:22:40.580Z,152612.86
2019-05-29T01:25:09.936Z,152612.86
2019-05-29T01:27:38.454Z,152599.69
2019-05-29T01:30:07.781Z,152585.20
2019-05-29T01:32:36.384Z,152570.72
2019-05-29T01:35:09.525Z,152615.47
2019-05-29T01:37:38.039Z,152612.86
2019-05-29T01:40:19.156Z,152572.08
2019-05-29T01:42:37.223Z,152552.36
2019-05-29T01:45:08.815Z,152537.88
2019-05-29T01:47:37.624Z,152549.69
2019-05-29T01:50:06.893Z,152557.59
2019-05-29T01:52:35.534Z,152531.34
2019-05-29T01:55:06.645Z,152541.86
2019-05-29T01:57:35.166Z,152505.05
2019-05-29T02:00:05.638Z,152527.38
2019-05-29T02:02:34.122Z,152520.84
2019-05-29T02:05:02.745Z,152533.97
2019-05-29T02:07:31.296Z,152518.17
2019-05-29T02:09:59.931Z,152528.69
2019-05-29T02:12:28.451Z,152510.33
2019-05-29T02:14:57.045Z,152509.03
2019-05-29T02:17:25.561Z,152489.31
2019-05-29T02:19:54.098Z,152502.44
2019-05-29T02:22:23.096Z,152498.52
2019-05-29T02:24:51.749Z,152512.94
2019-05-29T02:27:21.223Z,152523.45
2019-05-29T02:29:50.029Z,152512.94
2019-05-29T02:32:19.627Z,152528.69
2019-05-29T02:34:48.451Z,152505.05
2019-05-29T02:37:18.244Z,152490.63
2019-05-29T02:39:47.002Z,152524.75
2019-05-29T02:42:15.657Z,152523.45
2019-05-29T02:44:44.388Z,152519.53
2019-05-29T02:47:12.872Z,152491.92
2019-05-29T02:49:41.383Z,152468.30
2019-05-29T02:52:09.939Z,152473.53
2019-05-29T02:54:38.579Z,152497.16
2019-05-29T02:57:07.129Z,152497.16
2019-05-29T02:59:35.608Z,152487.95
2019-05-29T03:02:04.147Z,152476.14
2019-05-29T03:04:33.169Z,152487.95
2019-05-29T03:07:02.055Z,152481.42
2019-05-29T03:09:30.908Z,152494.55
2019-05-29T03:12:00.384Z,152494.55
2019-05-29T03:14:29.761Z,152457.80
2019-05-29T03:16:59.538Z,152478.81
2019-05-29T03:19:28.093Z,152490.63
2019-05-29T03:21:56.834Z,152507.66
2019-05-29T03:24:26.699Z,152507.66
2019-05-29T03:26:55.709Z,152507.66
2019-05-29T03:29:25.795Z,152494.55
2019-05-29T03:31:54.574Z,152469.61
2019-05-29T03:34:23.190Z,152476.14
2019-05-29T03:36:51.742Z,152484.03
2019-05-29T03:39:21.959Z,152472.22
2019-05-29T03:41:52.573Z,152423.61
2019-05-29T03:44:21.133Z,152444.63
2019-05-29T03:46:49.741Z,152459.09
2019-05-29T03:49:18.406Z,152465.64
2019-05-29T03:51:46.955Z,152481.42
2019-05-29T03:54:15.439Z,152489.31
2019-05-29T03:56:43.925Z,152484.03
2019-05-29T03:59:12.455Z,152507.66
2019-05-29T04:01:41.048Z,152494.55
2019-05-29T04:04:09.543Z,152476.14
2019-05-29T04:06:38.084Z,152470.91
2019-05-29T04:09:07.147Z,152495.84
2019-05-29T04:11:37.917Z,152481.42
2019-05-29T04:14:06.873Z,152486.66
2019-05-29T04:16:58.621Z,152487.95
2019-05-29T04:19:13.543Z,152481.42
2019-05-29T04:21:44.074Z,152436.78
2019-05-29T04:24:16.117Z,152442.00
2019-05-29T04:26:46.811Z,152468.30
2019-05-29T04:29:15.888Z,152438.09
2019-05-29T04:31:44.369Z,152434.13
2019-05-29T04:34:12.867Z,152461.72
2019-05-29T04:36:41.527Z,152476.14
2019-05-29T04:39:10.012Z,152465.64
2019-05-29T04:41:39.235Z,152499.81
2019-05-29T04:44:07.919Z,152473.53
2019-05-29T04:46:38.324Z,152482.72
2019-05-29T04:49:06.905Z,152468.30
2019-05-29T04:51:35.884Z,152463.02
2019-05-29T04:54:05.740Z,152511.63
2019-05-29T04:56:34.851Z,152537.88
2019-05-29T04:59:03.590Z,152560.20
2019-05-29T05:01:33.028Z,152560.20
2019-05-29T05:04:01.818Z,152547.08
2019-05-29T05:06:31.199Z,152530.03
2019-05-29T05:08:59.784Z,152552.36
2019-05-29T05:11:29.385Z,152557.59
2019-05-29T05:14:01.304Z,152582.59
2019-05-29T05:16:29.614Z,152560.20
2019-05-29T05:18:58.303Z,152568.09
2019-05-29T05:21:26.880Z,152566.80
2019-05-29T05:23:55.410Z,152576.00
2019-05-29T05:26:30.055Z,152539.19
2019-05-29T05:28:58.654Z,152570.72
2019-05-29T05:31:27.169Z,152614.17
2019-05-29T05:33:55.663Z,152612.86
2019-05-29T05:36:24.340Z,152591.78
2019-05-29T05:38:52.815Z,152581.28
2019-05-29T05:41:21.422Z,152604.97
2019-05-29T05:43:49.958Z,152620.70
2019-05-29T05:46:18.490Z,152606.28
2019-05-29T05:48:46.920Z,152691.69
2019-05-29T05:51:15.497Z,152706.16
2019-05-29T05:53:44.019Z,152683.78
2019-05-29T05:56:12.691Z,152702.19
2019-05-29T05:58:42.272Z,152664.11
2019-05-29T06:01:11.310Z,152694.30
2019-05-29T06:03:42.209Z,152761.36
2019-05-29T06:06:10.981Z,152777.11
2019-05-29T06:08:40.239Z,152791.59
2019-05-29T06:11:09.013Z,152794.22
2019-05-29T06:13:38.384Z,152856.02
2019-05-29T06:16:07.017Z,152877.06
2019-05-29T06:18:36.563Z,152986.31
2019-05-29T06:21:05.131Z,153134.97
2019-05-29T06:23:34.701Z,153337.81
2019-05-29T06:26:03.447Z,153501.11
2019-05-29T06:28:33.002Z,153623.73
2019-05-29T06:31:01.633Z,153817.58
2019-05-29T06:33:30.327Z,153973.30
2019-05-29T06:35:58.904Z,154130.41
2019-05-29T06:38:27.470Z,154222.83
2019-05-29T06:40:56.058Z,154233.39
2019-05-29T06:43:25.702Z,154143.59
2019-05-29T06:45:55.024Z,154191.14
2019-05-29T06:48:57.973Z,154273.03
2019-05-29T06:50:58.899Z,154276.97
2019-05-29T06:53:29.047Z,154176.59
2019-05-29T06:55:58.926Z,154173.97
2019-05-29T06:58:27.872Z,154262.47
2019-05-29T07:00:56.437Z,154365.44
2019-05-29T07:03:25.040Z,154518.78
2019-05-29T07:05:53.558Z,154592.80
2019-05-29T07:08:37.689Z,154619.31
2019-05-29T07:10:52.417Z,154624.56
2019-05-29T07:13:21.006Z,154770.03
2019-05-29T07:15:49.506Z,154811.03
2019-05-29T07:18:18.035Z,154664.25
2019-05-29T07:20:46.999Z,154561.08
2019-05-29T07:23:15.675Z,154391.94
2019-05-29T07:25:45.671Z,154315.28
2019-05-29T07:28:14.508Z,154201.70
2019-05-29T07:30:49.795Z,154291.47
2019-05-29T07:33:13.354Z,154283.59
2019-05-29T07:35:41.892Z,154493.69
2019-05-29T07:38:10.457Z,154562.39
2019-05-29T07:40:40.491Z,154669.56
2019-05-29T07:43:09.467Z,154555.81
2019-05-29T07:45:38.230Z,154529.36
2019-05-29T07:48:06.837Z,154651.03
2019-05-29T07:50:35.363Z,154804.45
2019-05-29T07:53:03.986Z,154865.31
2019-05-29T07:55:33.401Z,154864.00
2019-05-29T07:58:02.104Z,154818.98
2019-05-29T08:00:35.681Z,154518.78
2019-05-29T08:03:00.850Z,154411.75
2019-05-29T08:05:29.419Z,154423.64
2019-05-29T08:07:58.031Z,154471.23
2019-05-29T08:10:26.728Z,154492.38
2019-05-29T08:12:56.000Z,154658.98
2019-05-29T08:15:24.691Z,154808.41
2019-05-29T08:17:53.190Z,154645.72
2019-05-29T08:20:21.768Z,154651.03
2019-05-29T08:22:50.600Z,154697.30
2019-05-29T08:25:19.664Z,154768.72
2019-05-29T08:27:48.869Z,154645.72
2019-05-29T08:30:18.536Z,154547.88
2019-05-29T08:32:47.087Z,154554.50
2019-05-29T08:35:17.231Z,154550.50
2019-05-29T08:37:46.920Z,154450.09
2019-05-29T08:40:18.951Z,154569.02
2019-05-29T08:42:47.483Z,154764.77
2019-05-29T08:45:18.015Z,154862.69
2019-05-29T08:47:47.631Z,154907.66
2019-05-29T08:50:19.151Z,154723.77
2019-05-29T08:52:48.081Z,154817.67
2019-05-29T08:55:18.160Z,154883.84
2019-05-29T08:57:46.679Z,154844.16
2019-05-29T09:00:16.219Z,154870.63
2019-05-29T09:02:44.803Z,154754.19
2019-05-29T09:05:14.651Z,154628.56
2019-05-29T09:07:47.819Z,154615.31
2019-05-29T09:10:16.733Z,154447.41
2019-05-29T09:12:51.643Z,154595.42
2019-05-29T09:15:20.849Z,154934.14
2019-05-29T09:17:46.149Z,155013.56
2019-05-29T09:20:28.365Z,155071.81
2019-05-29T09:22:45.382Z,155112.86
2019-05-29T09:25:15.317Z,155339.38
2019-05-29T09:27:44.057Z,155185.69
2019-05-29T09:30:13.880Z,155294.36
2019-05-29T09:32:49.971Z,155183.05
2019-05-29T09:35:15.582Z,155281.08
2019-05-29T09:37:44.203Z,155424.17
2019-05-29T09:40:16.919Z,155344.66
2019-05-29T09:42:45.808Z,155169.81
2019-05-29T09:45:16.242Z,155071.81
2019-05-29T09:47:45.200Z,154952.67
2019-05-29T09:50:14.253Z,154973.84
2019-05-29T09:52:42.891Z,155359.25
2019-05-29T09:55:11.971Z,155050.64
2019-05-29T09:57:40.488Z,155184.36
2019-05-29T10:00:11.119Z,155430.81
2019-05-29T10:02:39.871Z,155538.19
2019-05-29T10:05:10.015Z,155335.38
2019-05-29T10:07:39.060Z,155782.19
2019-05-29T10:10:12.724Z,155535.55
2019-05-29T10:12:41.306Z,155371.17
2019-05-29T10:15:11.607Z,155050.64
2019-05-29T10:17:40.294Z,155082.41
2019-05-29T10:20:11.135Z,155283.77
2019-05-29T10:22:41.043Z,155399.00
2019-05-29T10:25:12.591Z,155477.22
2019-05-29T10:27:41.238Z,155153.91
2019-05-29T10:30:10.684Z,155310.22
2019-05-29T10:32:39.304Z,155450.69
2019-05-29T10:35:09.225Z,155416.20
2019-05-29T10:37:37.701Z,155501.06
2019-05-29T10:40:08.077Z,155414.88
2019-05-29T10:42:36.565Z,155126.09
2019-05-29T10:45:08.652Z,155028.09
2019-05-29T10:47:37.200Z,154975.16
2019-05-29T10:50:07.554Z,155082.41
2019-05-29T10:52:36.039Z,155032.05
2019-05-29T10:55:10.220Z,154858.73
2019-05-29T10:57:38.760Z,154858.73
2019-05-29T11:00:09.257Z,154787.23
2019-05-29T11:02:37.879Z,154736.97
2019-05-29T11:05:06.957Z,154698.61
2019-05-29T11:07:35.462Z,154666.87
2019-05-29T11:10:05.739Z,154489.69
2019-05-29T11:12:34.211Z,154505.58
2019-05-29T11:15:19.902Z,154397.19
2019-05-29T11:17:33.032Z,154382.69
2019-05-29T11:20:01.666Z,154381.38
2019-05-29T11:22:30.212Z,154431.58
2019-05-29T11:25:20.613Z,154452.72
2019-05-29T11:27:28.966Z,154450.09
2019-05-29T11:29:58.953Z,154390.62
2019-05-29T11:32:27.617Z,154362.81
2019-05-29T11:34:57.512Z,154319.23
2019-05-29T11:37:26.277Z,154295.47
2019-05-29T11:39:54.920Z,154320.55
2019-05-29T11:42:27.633Z,154171.33
2019-05-29T11:44:55.126Z,154109.23
2019-05-29T11:47:23.986Z,154180.58
2019-05-29T11:49:55.150Z,154222.83
2019-05-29T11:52:25.220Z,154148.89
2019-05-29T11:54:58.908Z,154180.58
2019-05-29T11:57:24.331Z,154191.14
2019-05-29T11:59:53.820Z,154164.72
2019-05-29T12:02:22.530Z,154236.03
2019-05-29T12:04:51.195Z,154164.72
2019-05-29T12:07:19.727Z,154122.47
2019-05-29T12:09:48.261Z,154074.88
2019-05-29T12:12:16.808Z,154096.05
2019-05-29T12:14:58.795Z,154123.78
2019-05-29T12:17:15.693Z,154130.41
2019-05-29T12:19:44.252Z,154167.34
2019-05-29T12:22:12.787Z,154168.66
2019-05-29T12:24:41.309Z,154167.34
2019-05-29T12:27:09.803Z,154171.33
2019-05-29T12:29:38.342Z,154191.14
2019-05-29T12:32:10.679Z,154206.97
2019-05-29T12:34:52.760Z,154228.09
2019-05-29T12:37:09.211Z,154155.47
2019-05-29T12:39:37.690Z,154159.45
2019-05-29T12:42:06.397Z,154185.84
2019-05-29T12:44:34.968Z,154170.02
2019-05-29T12:47:04.248Z,154138.34
2019-05-29T12:49:33.170Z,154092.06
2019-05-29T12:52:02.166Z,154150.22
2019-05-29T12:54:31.149Z,154154.16
2019-05-29T12:57:00.006Z,154125.09
2019-05-29T12:59:28.665Z,154151.53
2019-05-29T13:01:58.434Z,154073.56
2019-05-29T13:04:27.268Z,154059.06
2019-05-29T13:06:56.238Z,154089.42
2019-05-29T13:09:24.916Z,154140.97
2019-05-29T13:11:54.377Z,154144.91
2019-05-29T13:14:23.009Z,154111.86
2019-05-29T13:16:51.672Z,154135.66
2019-05-29T13:19:20.199Z,154143.59
2019-05-29T13:21:48.784Z,154151.53
2019-05-29T13:24:18.164Z,154096.05
2019-05-29T13:26:46.710Z,154085.44
2019-05-29T13:29:15.258Z,154119.80
2019-05-29T13:31:43.775Z,154162.09
2019-05-29T13:34:12.261Z,154138.34
2019-05-29T13:36:40.813Z,154114.48
2019-05-29T13:39:09.735Z,154146.22
2019-05-29T13:41:38.602Z,154140.97
2019-05-29T13:44:09.381Z,154098.67
2019-05-29T13:46:37.568Z,154130.41
2019-05-29T13:49:07.174Z,154114.48
2019-05-29T13:51:35.857Z,154077.56
2019-05-29T13:54:13.306Z,154080.19
2019-05-29T13:56:34.799Z,154012.89
2019-05-29T13:59:04.987Z,154027.39
2019-05-29T14:01:33.606Z,154000.97
2019-05-29T14:04:02.553Z,154016.84
2019-05-29T14:06:31.355Z,154044.56
2019-05-29T14:09:00.818Z,154064.31
2019-05-29T14:11:30.782Z,154043.20
2019-05-29T14:13:59.450Z,154064.31
2019-05-29T14:16:27.949Z,154053.77
2019-05-29T14:18:56.499Z,154051.14
2019-05-29T14:21:25.021Z,154044.56
2019-05-29T14:23:53.654Z,154040.58
2019-05-29T14:26:23.749Z,154074.88
2019-05-29T14:28:52.348Z,154090.75
2019-05-29T14:31:20.819Z,154089.42
2019-05-29T14:33:49.347Z,154024.77
2019-05-29T14:36:17.819Z,153995.72
2019-05-29T14:38:46.346Z,154024.77
2019-05-29T14:41:14.975Z,154035.31
2019-05-29T14:43:43.575Z,154040.58
2019-05-29T14:46:12.186Z,154039.27
2019-05-29T14:48:40.772Z,154067.00
2019-05-29T14:51:12.634Z,154076.25
2019-05-29T14:53:41.349Z,154088.11
2019-05-29T14:56:10.653Z,154103.92
2019-05-29T14:58:39.346Z,154109.23
2019-05-29T15:01:09.105Z,154086.80
2019-05-29T15:03:37.804Z,154072.25
2019-05-29T15:06:07.520Z,154070.94
2019-05-29T15:08:36.298Z,154030.02
2019-05-29T15:11:05.770Z,154039.27
2019-05-29T15:13:36.615Z,154051.14
2019-05-29T15:16:06.534Z,154031.33
2019-05-29T15:18:35.392Z,154015.53
2019-05-29T15:21:04.883Z,154028.70
2019-05-29T15:23:33.599Z,154061.69
2019-05-29T15:26:02.184Z,154061.69
2019-05-29T15:28:30.745Z,154057.75
2019-05-29T15:30:59.270Z,154068.31
2019-05-29T15:33:27.775Z,154067.00
2019-05-29T15:35:56.385Z,154039.27
2019-05-29T15:38:24.916Z,154006.28
2019-05-29T15:40:53.485Z,153987.80
2019-05-29T15:43:21.973Z,154003.66
2019-05-29T15:45:50.602Z,154014.22
2019-05-29T15:48:19.133Z,154032.64
2019-05-29T15:50:47.660Z,154037.95
2019-05-29T15:53:17.405Z,154039.27
2019-05-29T15:55:46.831Z,154030.02
2019-05-29T15:58:15.456Z,154045.88
2019-05-29T16:00:44.070Z,154048.50
2019-05-29T16:03:14.180Z,154068.31
2019-05-29T16:05:42.970Z,154085.44
2019-05-29T16:08:11.998Z,154067.00
2019-05-29T16:10:40.904Z,154057.75
2019-05-29T16:13:10.846Z,154067.00
2019-05-29T16:15:39.679Z,154068.31
2019-05-29T16:18:19.833Z,154063.00
2019-05-29T16:20:38.669Z,154064.31
2019-05-29T16:23:07.187Z,154078.88
2019-05-29T16:25:40.506Z,154040.58
2019-05-29T16:28:05.945Z,154000.97
2019-05-29T16:30:34.484Z,153998.34
2019-05-29T16:33:03.020Z,153971.98
2019-05-29T16:35:31.563Z,153981.17
2019-05-29T16:38:00.045Z,153974.61
2019-05-29T16:40:28.647Z,153927.09
2019-05-29T16:42:57.179Z,153927.09
2019-05-29T16:45:25.832Z,153948.19
2019-05-29T16:47:54.362Z,153950.88
2019-05-29T16:50:23.015Z,153941.63
2019-05-29T16:52:51.583Z,153937.64
2019-05-29T16:55:21.072Z,153956.13
2019-05-29T16:57:49.731Z,153932.39
2019-05-29T17:00:19.603Z,153935.02
2019-05-29T17:02:48.385Z,153902.05
2019-05-29T17:05:17.711Z,153888.86
2019-05-29T17:07:49.462Z,153894.13
2019-05-29T17:10:18.451Z,153871.70
2019-05-29T17:12:47.039Z,153882.25
2019-05-29T17:15:17.217Z,153892.80
2019-05-29T17:17:46.151Z,153905.98
2019-05-29T17:20:16.438Z,153903.36
2019-05-29T17:22:45.015Z,153900.73
2019-05-29T17:25:14.809Z,153887.50
2019-05-29T17:27:43.636Z,153903.36
2019-05-29T17:30:12.554Z,153900.73
2019-05-29T17:32:41.182Z,153905.98
2019-05-29T17:35:10.116Z,153912.59
2019-05-29T17:37:38.694Z,153911.28
2019-05-29T17:40:07.966Z,153900.73
2019-05-29T17:42:36.733Z,153886.19
2019-05-29T17:45:12.650Z,153876.95
2019-05-29T17:47:41.864Z,153942.94
2019-05-29T17:50:10.969Z,153945.58
2019-05-29T17:52:39.537Z,153938.95
2019-05-29T17:55:09.149Z,153940.31
2019-05-29T17:57:37.799Z,153945.58
2019-05-29T18:00:09.477Z,153900.73
2019-05-29T18:02:51.354Z,153891.50
2019-05-29T18:05:08.471Z,153870.37
2019-05-29T18:07:37.672Z,153855.80
2019-05-29T18:10:08.156Z,153855.80
2019-05-29T18:12:38.430Z,153843.94
2019-05-29T18:15:08.383Z,153807.03
2019-05-29T18:17:36.910Z,153801.72
2019-05-29T18:20:14.029Z,153795.17
2019-05-29T18:22:40.230Z,153791.17
2019-05-29T18:25:09.307Z,153787.23
2019-05-29T18:27:37.809Z,153783.25
2019-05-29T18:30:08.771Z,153767.45
2019-05-29T18:32:37.737Z,153751.61
2019-05-29T18:35:07.768Z,153739.75
2019-05-29T18:37:36.327Z,153742.38
2019-05-29T18:40:12.040Z,153739.75
2019-05-29T18:42:37.711Z,153721.28
2019-05-29T18:45:19.650Z,153710.72
2019-05-29T18:47:38.455Z,153687.00
2019-05-29T18:50:08.564Z,153671.22
2019-05-29T18:52:37.099Z,153660.67
2019-05-29T18:55:07.891Z,153658.00
2019-05-29T18:57:36.424Z,153636.91
2019-05-29T19:00:08.400Z,153652.75
2019-05-29T19:02:36.959Z,153642.20
2019-05-29T19:05:06.358Z,153634.28
2019-05-29T19:07:35.117Z,153621.12
2019-05-29T19:10:06.783Z,153597.41
2019-05-29T19:12:35.950Z,153584.19
2019-05-29T19:15:07.088Z,153607.94
2019-05-29T19:17:36.288Z,153592.11
2019-05-29T19:20:06.028Z,153551.20
2019-05-29T19:22:34.832Z,153557.80
2019-05-29T19:25:04.287Z,153568.34
2019-05-29T19:27:40.241Z,153507.72
2019-05-29T19:30:03.378Z,153501.11
2019-05-29T19:32:32.667Z,153458.95
2019-05-29T19:35:02.110Z,153523.50
2019-05-29T19:37:31.962Z,153494.56
2019-05-29T19:40:00.737Z,153449.72
2019-05-29T19:42:30.256Z,153433.94
2019-05-29T19:44:58.822Z,153436.56
2019-05-29T19:47:27.304Z,153465.56
2019-05-29T19:49:55.805Z,153444.48
2019-05-29T19:52:25.079Z,153449.72
2019-05-29T19:54:53.855Z,153435.25
2019-05-29T19:57:22.306Z,153436.56
2019-05-29T19:59:50.818Z,153402.33
2019-05-29T20:02:19.350Z,153393.11
2019-05-29T20:04:47.939Z,153407.58
2019-05-29T20:07:16.509Z,153415.50
2019-05-29T20:09:45.155Z,153394.41
2019-05-29T20:12:13.700Z,153377.28
2019-05-29T20:14:42.419Z,153349.66
2019-05-29T20:17:10.908Z,153357.52
2019-05-29T20:19:40.962Z,153368.05
2019-05-29T20:22:09.673Z,153368.05
2019-05-29T20:24:39.074Z,153344.36
2019-05-29T20:27:07.826Z,153346.97
2019-05-29T20:29:36.495Z,153325.91
2019-05-29T20:32:05.137Z,153304.84
2019-05-29T20:34:34.700Z,153306.16
2019-05-29T20:37:03.295Z,153295.61
2019-05-29T20:39:32.946Z,153289.06
2019-05-29T20:42:01.990Z,153273.19
2019-05-29T20:44:30.638Z,153262.66
2019-05-29T20:47:02.345Z,153231.06
2019-05-29T20:49:31.903Z,153225.81
2019-05-29T20:52:00.529Z,153178.41
2019-05-29T20:54:29.321Z,153125.75
2019-05-29T20:57:00.206Z,153121.83
2019-05-29T20:59:28.954Z,153140.22
2019-05-29T21:01:57.482Z,153174.47
2019-05-29T21:04:26.031Z,153178.41
2019-05-29T21:06:54.667Z,153174.47
2019-05-29T21:09:23.320Z,153145.50
2019-05-29T21:11:51.826Z,153146.81
2019-05-29T21:14:20.335Z,153098.11
2019-05-29T21:16:48.824Z,153086.27
2019-05-29T21:19:17.548Z,153120.52
2019-05-29T21:21:46.139Z,153106.02
2019-05-29T21:24:14.763Z,153096.80
2019-05-29T21:26:45.192Z,153094.17
2019-05-29T21:29:13.845Z,153102.08
2019-05-29T21:31:43.605Z,153091.56
2019-05-29T21:34:12.676Z,153078.36
2019-05-29T21:36:42.175Z,153056.00
2019-05-29T21:39:11.075Z,153054.69
2019-05-29T21:41:40.400Z,153065.22
2019-05-29T21:44:09.142Z,153033.64
2019-05-29T21:46:38.842Z,153054.69
2019-05-29T21:49:10.944Z,153057.31
2019-05-29T21:51:39.366Z,153054.69
2019-05-29T21:54:08.044Z,153015.20
2019-05-29T21:56:37.504Z,153034.94
2019-05-29T21:59:06.257Z,153031.02
2019-05-29T22:01:34.923Z,153020.50
2019-05-29T22:04:03.929Z,153013.91
2019-05-29T22:06:32.542Z,153007.34
2019-05-29T22:09:01.283Z,153007.34
2019-05-29T22:11:29.782Z,152952.02
2019-05-29T22:13:58.550Z,152933.64
2019-05-29T22:16:27.237Z,152912.59
2019-05-29T22:18:57.017Z,152941.50
2019-05-29T22:21:26.425Z,152954.73
2019-05-29T22:23:55.151Z,152938.87
2019-05-29T22:26:23.725Z,152930.97
2019-05-29T22:28:53.131Z,152907.31
2019-05-29T22:31:21.715Z,152877.06
2019-05-29T22:33:51.410Z,152898.09
2019-05-29T22:36:20.124Z,152874.44
2019-05-29T22:38:48.633Z,152840.27
2019-05-29T22:41:17.172Z,152815.25
2019-05-29T22:43:45.799Z,152823.16
2019-05-29T22:46:14.319Z,152838.91
2019-05-29T22:48:42.814Z,152810.02
2019-05-29T22:51:11.478Z,152781.08
2019-05-29T22:53:39.935Z,152771.88
2019-05-29T22:56:08.459Z,152783.69
2019-05-29T22:58:36.967Z,152746.92
2019-05-29T23:01:05.487Z,152802.12
2019-05-29T23:03:33.978Z,152806.05
2019-05-29T23:06:04.236Z,152781.08
2019-05-29T23:08:32.771Z,152802.12
2019-05-29T23:11:02.982Z,152802.12
2019-05-29T23:13:31.886Z,152794.22
2019-05-29T23:16:00.822Z,152795.53
2019-05-29T23:18:29.382Z,152794.22
2019-05-29T23:20:58.448Z,152796.84
2019-05-29T23:23:27.093Z,152773.19
2019-05-29T23:25:56.510Z,152779.78
2019-05-29T23:28:25.099Z,152770.56
2019-05-29T23:30:54.679Z,152763.97
2019-05-29T23:33:23.338Z,152749.53
2019-05-29T23:35:52.912Z,152733.73
2019-05-29T23:38:21.680Z,152735.05
2019-05-29T23:40:50.316Z,152740.33
2019-05-29T23:43:18.875Z,152739.02
2019-05-29T23:45:50.393Z,152711.39
2019-05-29T23:48:22.022Z,152715.31
2019-05-29T23:50:50.537Z,152707.47
2019-05-29T23:53:19.118Z,152702.19
2019-05-29T23:55:47.673Z,152707.47
2019-05-29T23:58:16.246Z,152720.61
